sensor_id;sensor_type;location;lat;lon;timestamp;P1;durP1;ratioP1;P2;durP2;ratioP2
60610;SDS011;46439;51.164;13.572;2023-08-21T00:00:33;4.60;;;3.50;;
60610;SDS011;46439;51.164;13.572;2023-08-21T00:03:01;3.60;;;3.30;;
60610;SDS011;46439;51.164;13.572;2023-08-21T00:05:30;3.20;;;2.90;;
60610;SDS011;46439;51.164;13.572;2023-08-21T00:07:59;5.10;;;3.30;;
60610;SDS011;46439;51.164;13.572;2023-08-21T00:10:29;5.60;;;3.80;;
60610;SDS011;46439;51.164;13.572;2023-08-21T00:12:59;4.60;;;3.40;;
60610;SDS011;46439;51.164;13.572;2023-08-21T00:15:28;4.50;;;3.50;;
60610;SDS011;46439;51.164;13.572;2023-08-21T00:17:56;4.70;;;3.70;;
60610;SDS011;46439;51.164;13.572;2023-08-21T00:20:25;4.50;;;3.50;;
60610;SDS011;46439;51.164;13.572;2023-08-21T00:22:53;6.90;;;3.80;;
60610;SDS011;46439;51.164;13.572;2023-08-21T00:25:22;5.50;;;3.50;;
60610;SDS011;46439;51.164;13.572;2023-08-21T00:27:51;4.50;;;3.90;;
60610;SDS011;46439;51.164;13.572;2023-08-21T00:30:20;5.10;;;3.80;;
60610;SDS011;46439;51.164;13.572;2023-08-21T00:32:48;5.40;;;3.50;;
60610;SDS011;46439;51.164;13.572;2023-08-21T00:35:17;4.10;;;3.70;;
60610;SDS011;46439;51.164;13.572;2023-08-21T00:37:45;4.90;;;3.70;;
60610;SDS011;46439;51.164;13.572;2023-08-21T00:40:14;4.90;;;4.00;;
60610;SDS011;46439;51.164;13.572;2023-08-21T00:42:43;7.70;;;3.80;;
60610;SDS011;46439;51.164;13.572;2023-08-21T00:45:12;4.10;;;3.70;;
60610;SDS011;46439;51.164;13.572;2023-08-21T00:47:42;5.70;;;3.60;;
60610;SDS011;46439;51.164;13.572;2023-08-21T00:50:11;6.50;;;4.00;;
60610;SDS011;46439;51.164;13.572;2023-08-21T00:52:39;5.30;;;3.10;;
60610;SDS011;46439;51.164;13.572;2023-08-21T00:55:10;4.60;;;2.90;;
60610;SDS011;46439;51.164;13.572;2023-08-21T00:57:39;4.80;;;3.10;;
60610;SDS011;46439;51.164;13.572;2023-08-21T01:00:09;4.10;;;2.90;;
60610;SDS011;46439;51.164;13.572;2023-08-21T01:02:39;5.00;;;3.10;;
60610;SDS011;46439;51.164;13.572;2023-08-21T01:05:08;4.20;;;2.70;;
60610;SDS011;46439;51.164;13.572;2023-08-21T01:07:38;4.60;;;2.60;;
60610;SDS011;46439;51.164;13.572;2023-08-21T01:10:16;3.30;;;2.40;;
60610;SDS011;46439;51.164;13.572;2023-08-21T01:12:54;3.50;;;2.70;;
60610;SDS011;46439;51.164;13.572;2023-08-21T01:15:28;3.20;;;2.50;;
60610;SDS011;46439;51.164;13.572;2023-08-21T01:17:57;4.10;;;2.70;;
60610;SDS011;46439;51.164;13.572;2023-08-21T01:20:27;3.80;;;2.90;;
60610;SDS011;46439;51.164;13.572;2023-08-21T01:22:56;3.60;;;2.80;;
60610;SDS011;46439;51.164;13.572;2023-08-21T01:25:30;3.00;;;2.60;;
60610;SDS011;46439;51.164;13.572;2023-08-21T01:27:59;3.90;;;2.90;;
60610;SDS011;46439;51.164;13.572;2023-08-21T01:30:28;6.10;;;2.80;;
60610;SDS011;46439;51.164;13.572;2023-08-21T01:33:05;4.20;;;2.50;;
60610;SDS011;46439;51.164;13.572;2023-08-21T01:35:37;4.00;;;2.90;;
60610;SDS011;46439;51.164;13.572;2023-08-21T01:38:06;4.00;;;2.90;;
60610;SDS011;46439;51.164;13.572;2023-08-21T01:40:35;3.60;;;2.70;;
60610;SDS011;46439;51.164;13.572;2023-08-21T01:43:03;4.80;;;2.40;;
60610;SDS011;46439;51.164;13.572;2023-08-21T01:45:32;3.80;;;2.60;;
60610;SDS011;46439;51.164;13.572;2023-08-21T01:48:00;2.90;;;2.50;;
60610;SDS011;46439;51.164;13.572;2023-08-21T01:50:29;3.60;;;2.80;;
60610;SDS011;46439;51.164;13.572;2023-08-21T01:52:57;3.60;;;2.80;;
60610;SDS011;46439;51.164;13.572;2023-08-21T01:55:26;3.10;;;2.80;;
60610;SDS011;46439;51.164;13.572;2023-08-21T01:57:55;3.10;;;2.80;;
60610;SDS011;46439;51.164;13.572;2023-08-21T02:00:23;3.30;;;2.70;;
60610;SDS011;46439;51.164;13.572;2023-08-21T02:02:51;5.00;;;2.90;;
60610;SDS011;46439;51.164;13.572;2023-08-21T02:05:20;4.70;;;2.80;;
60610;SDS011;46439;51.164;13.572;2023-08-21T02:07:48;4.00;;;3.30;;
60610;SDS011;46439;51.164;13.572;2023-08-21T02:10:17;3.80;;;2.90;;
60610;SDS011;46439;51.164;13.572;2023-08-21T02:12:45;5.30;;;3.10;;
60610;SDS011;46439;51.164;13.572;2023-08-21T02:15:14;4.40;;;3.10;;
60610;SDS011;46439;51.164;13.572;2023-08-21T02:17:43;3.70;;;3.10;;
60610;SDS011;46439;51.164;13.572;2023-08-21T02:20:12;3.80;;;3.10;;
60610;SDS011;46439;51.164;13.572;2023-08-21T02:22:40;4.70;;;3.20;;
60610;SDS011;46439;51.164;13.572;2023-08-21T02:25:09;6.00;;;3.20;;
60610;SDS011;46439;51.164;13.572;2023-08-21T02:27:37;5.40;;;3.40;;
60610;SDS011;46439;51.164;13.572;2023-08-21T02:30:06;4.50;;;3.50;;
60610;SDS011;46439;51.164;13.572;2023-08-21T02:32:35;4.00;;;3.00;;
60610;SDS011;46439;51.164;13.572;2023-08-21T02:35:05;3.50;;;3.20;;
60610;SDS011;46439;51.164;13.572;2023-08-21T02:37:34;4.80;;;3.50;;
60610;SDS011;46439;51.164;13.572;2023-08-21T02:40:07;5.00;;;3.40;;
60610;SDS011;46439;51.164;13.572;2023-08-21T02:42:35;4.20;;;3.40;;
60610;SDS011;46439;51.164;13.572;2023-08-21T02:45:05;4.30;;;3.10;;
60610;SDS011;46439;51.164;13.572;2023-08-21T02:47:36;4.40;;;3.60;;
60610;SDS011;46439;51.164;13.572;2023-08-21T02:50:05;4.60;;;3.30;;
60610;SDS011;46439;51.164;13.572;2023-08-21T02:52:35;5.20;;;3.80;;
60610;SDS011;46439;51.164;13.572;2023-08-21T02:55:05;4.20;;;3.30;;
60610;SDS011;46439;51.164;13.572;2023-08-21T02:57:34;3.80;;;3.50;;
60610;SDS011;46439;51.164;13.572;2023-08-21T03:00:03;5.60;;;3.50;;
60610;SDS011;46439;51.164;13.572;2023-08-21T03:02:36;6.20;;;3.40;;
60610;SDS011;46439;51.164;13.572;2023-08-21T03:05:05;5.40;;;3.60;;
60610;SDS011;46439;51.164;13.572;2023-08-21T03:07:35;3.80;;;3.40;;
60610;SDS011;46439;51.164;13.572;2023-08-21T03:10:04;4.40;;;3.50;;
60610;SDS011;46439;51.164;13.572;2023-08-21T03:12:34;4.30;;;3.70;;
60610;SDS011;46439;51.164;13.572;2023-08-21T03:15:03;4.10;;;3.50;;
60610;SDS011;46439;51.164;13.572;2023-08-21T03:17:33;5.50;;;3.60;;
60610;SDS011;46439;51.164;13.572;2023-08-21T03:20:02;4.70;;;3.60;;
60610;SDS011;46439;51.164;13.572;2023-08-21T03:22:31;5.30;;;4.10;;
60610;SDS011;46439;51.164;13.572;2023-08-21T03:25:01;4.60;;;3.80;;
60610;SDS011;46439;51.164;13.572;2023-08-21T03:27:30;7.50;;;3.70;;
60610;SDS011;46439;51.164;13.572;2023-08-21T03:29:58;4.40;;;3.60;;
60610;SDS011;46439;51.164;13.572;2023-08-21T03:32:27;5.50;;;3.80;;
60610;SDS011;46439;51.164;13.572;2023-08-21T03:34:56;8.90;;;3.70;;
60610;SDS011;46439;51.164;13.572;2023-08-21T03:37:24;5.60;;;3.70;;
60610;SDS011;46439;51.164;13.572;2023-08-21T03:39:53;4.80;;;3.70;;
60610;SDS011;46439;51.164;13.572;2023-08-21T03:42:22;7.10;;;3.50;;
60610;SDS011;46439;51.164;13.572;2023-08-21T03:44:50;5.50;;;3.50;;
60610;SDS011;46439;51.164;13.572;2023-08-21T03:47:18;10.40;;;3.80;;
60610;SDS011;46439;51.164;13.572;2023-08-21T03:49:47;7.10;;;3.80;;
60610;SDS011;46439;51.164;13.572;2023-08-21T03:52:15;5.50;;;3.70;;
60610;SDS011;46439;51.164;13.572;2023-08-21T03:54:44;4.60;;;3.70;;
60610;SDS011;46439;51.164;13.572;2023-08-21T03:57:12;5.90;;;3.80;;
60610;SDS011;46439;51.164;13.572;2023-08-21T03:59:41;6.90;;;4.00;;
60610;SDS011;46439;51.164;13.572;2023-08-21T04:02:10;7.70;;;4.20;;
60610;SDS011;46439;51.164;13.572;2023-08-21T04:04:38;6.70;;;3.80;;
60610;SDS011;46439;51.164;13.572;2023-08-21T04:07:06;4.50;;;3.70;;
60610;SDS011;46439;51.164;13.572;2023-08-21T04:09:35;5.50;;;3.80;;
60610;SDS011;46439;51.164;13.572;2023-08-21T04:12:03;6.40;;;3.90;;
60610;SDS011;46439;51.164;13.572;2023-08-21T04:14:32;6.20;;;3.80;;
60610;SDS011;46439;51.164;13.572;2023-08-21T04:17:01;7.80;;;3.80;;
60610;SDS011;46439;51.164;13.572;2023-08-21T04:19:30;6.50;;;3.90;;
60610;SDS011;46439;51.164;13.572;2023-08-21T04:22:00;5.30;;;3.80;;
60610;SDS011;46439;51.164;13.572;2023-08-21T04:24:29;9.80;;;4.10;;
60610;SDS011;46439;51.164;13.572;2023-08-21T04:26:57;8.50;;;3.90;;
60610;SDS011;46439;51.164;13.572;2023-08-21T04:29:26;13.40;;;4.40;;
60610;SDS011;46439;51.164;13.572;2023-08-21T04:31:54;10.10;;;4.30;;
60610;SDS011;46439;51.164;13.572;2023-08-21T04:34:23;7.90;;;3.90;;
60610;SDS011;46439;51.164;13.572;2023-08-21T04:36:51;6.80;;;4.10;;
60610;SDS011;46439;51.164;13.572;2023-08-21T04:39:20;8.50;;;4.50;;
60610;SDS011;46439;51.164;13.572;2023-08-21T04:41:49;5.50;;;4.30;;
60610;SDS011;46439;51.164;13.572;2023-08-21T04:44:17;5.70;;;4.10;;
60610;SDS011;46439;51.164;13.572;2023-08-21T04:46:47;8.70;;;4.20;;
60610;SDS011;46439;51.164;13.572;2023-08-21T04:49:17;5.90;;;4.10;;
60610;SDS011;46439;51.164;13.572;2023-08-21T04:51:45;7.90;;;4.40;;
60610;SDS011;46439;51.164;13.572;2023-08-21T04:54:14;5.40;;;4.40;;
60610;SDS011;46439;51.164;13.572;2023-08-21T04:56:43;8.10;;;4.50;;
60610;SDS011;46439;51.164;13.572;2023-08-21T04:59:11;5.80;;;4.20;;
60610;SDS011;46439;51.164;13.572;2023-08-21T05:01:40;6.30;;;4.10;;
60610;SDS011;46439;51.164;13.572;2023-08-21T05:04:09;5.80;;;3.70;;
60610;SDS011;46439;51.164;13.572;2023-08-21T05:06:37;4.90;;;4.00;;
60610;SDS011;46439;51.164;13.572;2023-08-21T05:09:06;5.40;;;4.20;;
60610;SDS011;46439;51.164;13.572;2023-08-21T05:11:35;7.50;;;3.90;;
60610;SDS011;46439;51.164;13.572;2023-08-21T05:14:03;4.60;;;4.00;;
60610;SDS011;46439;51.164;13.572;2023-08-21T05:16:32;6.80;;;3.60;;
60610;SDS011;46439;51.164;13.572;2023-08-21T05:19:01;4.90;;;3.70;;
60610;SDS011;46439;51.164;13.572;2023-08-21T05:21:30;4.70;;;3.80;;
60610;SDS011;46439;51.164;13.572;2023-08-21T05:23:58;5.50;;;3.70;;
60610;SDS011;46439;51.164;13.572;2023-08-21T05:26:27;6.20;;;3.70;;
60610;SDS011;46439;51.164;13.572;2023-08-21T05:28:55;7.10;;;4.00;;
60610;SDS011;46439;51.164;13.572;2023-08-21T05:31:24;6.20;;;3.60;;
60610;SDS011;46439;51.164;13.572;2023-08-21T05:33:52;5.50;;;4.00;;
60610;SDS011;46439;51.164;13.572;2023-08-21T05:36:21;7.40;;;3.90;;
60610;SDS011;46439;51.164;13.572;2023-08-21T05:38:50;4.10;;;3.50;;
60610;SDS011;46439;51.164;13.572;2023-08-21T05:41:18;6.20;;;4.00;;
60610;SDS011;46439;51.164;13.572;2023-08-21T05:43:47;5.80;;;4.00;;
60610;SDS011;46439;51.164;13.572;2023-08-21T05:46:15;5.10;;;4.00;;
60610;SDS011;46439;51.164;13.572;2023-08-21T05:48:44;9.90;;;3.90;;
60610;SDS011;46439;51.164;13.572;2023-08-21T05:51:12;4.50;;;3.90;;
60610;SDS011;46439;51.164;13.572;2023-08-21T05:53:41;5.60;;;3.90;;
60610;SDS011;46439;51.164;13.572;2023-08-21T05:56:10;6.60;;;4.10;;
60610;SDS011;46439;51.164;13.572;2023-08-21T05:58:38;6.10;;;3.90;;
60610;SDS011;46439;51.164;13.572;2023-08-21T06:01:06;4.70;;;3.50;;
60610;SDS011;46439;51.164;13.572;2023-08-21T06:03:35;6.70;;;4.10;;
60610;SDS011;46439;51.164;13.572;2023-08-21T06:06:04;6.10;;;3.80;;
60610;SDS011;46439;51.164;13.572;2023-08-21T06:08:32;4.30;;;3.80;;
60610;SDS011;46439;51.164;13.572;2023-08-21T06:11:01;4.60;;;3.50;;
60610;SDS011;46439;51.164;13.572;2023-08-21T06:13:30;6.10;;;3.80;;
60610;SDS011;46439;51.164;13.572;2023-08-21T06:15:58;6.70;;;3.80;;
60610;SDS011;46439;51.164;13.572;2023-08-21T06:18:27;4.10;;;3.60;;
60610;SDS011;46439;51.164;13.572;2023-08-21T06:20:56;6.20;;;4.10;;
60610;SDS011;46439;51.164;13.572;2023-08-21T06:23:24;6.00;;;4.00;;
60610;SDS011;46439;51.164;13.572;2023-08-21T06:25:52;5.50;;;3.80;;
60610;SDS011;46439;51.164;13.572;2023-08-21T06:28:21;5.40;;;3.60;;
60610;SDS011;46439;51.164;13.572;2023-08-21T06:30:55;4.50;;;3.60;;
60610;SDS011;46439;51.164;13.572;2023-08-21T06:33:29;6.60;;;3.10;;
60610;SDS011;46439;51.164;13.572;2023-08-21T06:35:58;4.30;;;3.40;;
60610;SDS011;46439;51.164;13.572;2023-08-21T06:38:26;6.10;;;3.20;;
60610;SDS011;46439;51.164;13.572;2023-08-21T06:40:55;3.20;;;2.90;;
60610;SDS011;46439;51.164;13.572;2023-08-21T06:43:23;3.10;;;2.60;;
60610;SDS011;46439;51.164;13.572;2023-08-21T06:45:52;3.10;;;2.60;;
60610;SDS011;46439;51.164;13.572;2023-08-21T06:48:20;5.50;;;2.80;;
60610;SDS011;46439;51.164;13.572;2023-08-21T06:50:49;4.10;;;3.10;;
60610;SDS011;46439;51.164;13.572;2023-08-21T06:53:18;3.80;;;2.60;;
60610;SDS011;46439;51.164;13.572;2023-08-21T06:55:46;4.30;;;3.00;;
60610;SDS011;46439;51.164;13.572;2023-08-21T06:58:14;4.50;;;2.90;;
60610;SDS011;46439;51.164;13.572;2023-08-21T07:00:43;6.10;;;2.90;;
60610;SDS011;46439;51.164;13.572;2023-08-21T07:03:11;4.70;;;3.20;;
60610;SDS011;46439;51.164;13.572;2023-08-21T07:05:40;4.90;;;3.10;;
60610;SDS011;46439;51.164;13.572;2023-08-21T07:08:12;3.90;;;3.10;;
60610;SDS011;46439;51.164;13.572;2023-08-21T07:10:41;5.00;;;3.10;;
60610;SDS011;46439;51.164;13.572;2023-08-21T07:13:09;4.50;;;3.10;;
60610;SDS011;46439;51.164;13.572;2023-08-21T07:15:37;3.90;;;3.00;;
60610;SDS011;46439;51.164;13.572;2023-08-21T07:18:06;3.50;;;2.60;;
60610;SDS011;46439;51.164;13.572;2023-08-21T07:20:34;4.00;;;3.10;;
60610;SDS011;46439;51.164;13.572;2023-08-21T07:23:03;6.10;;;2.90;;
60610;SDS011;46439;51.164;13.572;2023-08-21T07:25:31;6.20;;;3.00;;
60610;SDS011;46439;51.164;13.572;2023-08-21T07:28:00;3.80;;;2.80;;
60610;SDS011;46439;51.164;13.572;2023-08-21T07:30:29;6.10;;;3.00;;
60610;SDS011;46439;51.164;13.572;2023-08-21T07:32:57;6.90;;;3.20;;
60610;SDS011;46439;51.164;13.572;2023-08-21T07:35:26;6.00;;;3.00;;
60610;SDS011;46439;51.164;13.572;2023-08-21T07:37:54;3.30;;;2.70;;
60610;SDS011;46439;51.164;13.572;2023-08-21T07:40:23;4.90;;;3.00;;
60610;SDS011;46439;51.164;13.572;2023-08-21T07:42:51;4.50;;;2.70;;
60610;SDS011;46439;51.164;13.572;2023-08-21T07:45:20;5.60;;;3.20;;
60610;SDS011;46439;51.164;13.572;2023-08-21T07:47:49;4.20;;;2.90;;
60610;SDS011;46439;51.164;13.572;2023-08-21T07:50:17;4.80;;;3.20;;
60610;SDS011;46439;51.164;13.572;2023-08-21T07:52:46;3.60;;;2.90;;
60610;SDS011;46439;51.164;13.572;2023-08-21T07:55:14;3.80;;;3.10;;
60610;SDS011;46439;51.164;13.572;2023-08-21T07:57:43;4.90;;;3.10;;
60610;SDS011;46439;51.164;13.572;2023-08-21T08:00:12;4.90;;;3.40;;
60610;SDS011;46439;51.164;13.572;2023-08-21T08:02:41;3.80;;;3.20;;
60610;SDS011;46439;51.164;13.572;2023-08-21T08:05:10;3.90;;;3.00;;
60610;SDS011;46439;51.164;13.572;2023-08-21T08:07:38;3.70;;;3.20;;
60610;SDS011;46439;51.164;13.572;2023-08-21T08:10:07;6.70;;;3.30;;
60610;SDS011;46439;51.164;13.572;2023-08-21T08:12:36;6.50;;;3.20;;
60610;SDS011;46439;51.164;13.572;2023-08-21T08:15:08;3.40;;;2.80;;
60610;SDS011;46439;51.164;13.572;2023-08-21T08:17:37;5.40;;;3.20;;
60610;SDS011;46439;51.164;13.572;2023-08-21T08:20:07;3.40;;;3.10;;
60610;SDS011;46439;51.164;13.572;2023-08-21T08:22:36;5.80;;;3.20;;
60610;SDS011;46439;51.164;13.572;2023-08-21T08:25:06;6.80;;;3.50;;
60610;SDS011;46439;51.164;13.572;2023-08-21T08:27:35;5.50;;;3.10;;
60610;SDS011;46439;51.164;13.572;2023-08-21T08:30:04;5.60;;;3.30;;
60610;SDS011;46439;51.164;13.572;2023-08-21T08:32:35;3.80;;;2.80;;
60610;SDS011;46439;51.164;13.572;2023-08-21T08:35:14;4.50;;;2.80;;
60610;SDS011;46439;51.164;13.572;2023-08-21T08:38:02;4.50;;;3.10;;
60610;SDS011;46439;51.164;13.572;2023-08-21T08:40:31;4.30;;;3.40;;
60610;SDS011;46439;51.164;13.572;2023-08-21T08:43:00;4.70;;;2.70;;
60610;SDS011;46439;51.164;13.572;2023-08-21T08:45:29;4.10;;;3.00;;
60610;SDS011;46439;51.164;13.572;2023-08-21T08:48:01;6.70;;;3.10;;
60610;SDS011;46439;51.164;13.572;2023-08-21T08:50:31;4.00;;;2.90;;
60610;SDS011;46439;51.164;13.572;2023-08-21T08:53:00;5.50;;;3.20;;
60610;SDS011;46439;51.164;13.572;2023-08-21T08:55:29;3.30;;;3.00;;
60610;SDS011;46439;51.164;13.572;2023-08-21T08:57:58;5.50;;;3.00;;
60610;SDS011;46439;51.164;13.572;2023-08-21T09:00:26;4.00;;;3.20;;
60610;SDS011;46439;51.164;13.572;2023-08-21T09:02:55;4.80;;;3.20;;
60610;SDS011;46439;51.164;13.572;2023-08-21T09:05:24;5.90;;;3.50;;
60610;SDS011;46439;51.164;13.572;2023-08-21T09:08:09;4.50;;;3.20;;
60610;SDS011;46439;51.164;13.572;2023-08-21T09:10:39;3.70;;;2.90;;
60610;SDS011;46439;51.164;13.572;2023-08-21T09:13:12;3.20;;;2.90;;
60610;SDS011;46439;51.164;13.572;2023-08-21T09:15:43;5.50;;;3.20;;
60610;SDS011;46439;51.164;13.572;2023-08-21T09:18:13;4.30;;;3.00;;
60610;SDS011;46439;51.164;13.572;2023-08-21T09:20:42;5.50;;;3.30;;
60610;SDS011;46439;51.164;13.572;2023-08-21T09:23:14;5.20;;;3.00;;
60610;SDS011;46439;51.164;13.572;2023-08-21T09:25:44;5.00;;;3.10;;
60610;SDS011;46439;51.164;13.572;2023-08-21T09:28:15;4.90;;;2.80;;
60610;SDS011;46439;51.164;13.572;2023-08-21T09:30:50;5.20;;;2.90;;
60610;SDS011;46439;51.164;13.572;2023-08-21T09:33:20;3.80;;;3.10;;
60610;SDS011;46439;51.164;13.572;2023-08-21T09:35:50;6.50;;;2.90;;
60610;SDS011;46439;51.164;13.572;2023-08-21T09:38:27;6.50;;;2.90;;
60610;SDS011;46439;51.164;13.572;2023-08-21T09:40:56;3.90;;;2.70;;
60610;SDS011;46439;51.164;13.572;2023-08-21T09:43:25;6.20;;;2.90;;
60610;SDS011;46439;51.164;13.572;2023-08-21T09:45:54;6.20;;;2.80;;
60610;SDS011;46439;51.164;13.572;2023-08-21T09:48:23;5.20;;;3.20;;
60610;SDS011;46439;51.164;13.572;2023-08-21T09:50:53;4.90;;;3.00;;
60610;SDS011;46439;51.164;13.572;2023-08-21T09:53:22;7.00;;;3.20;;
60610;SDS011;46439;51.164;13.572;2023-08-21T09:55:53;5.00;;;2.80;;
60610;SDS011;46439;51.164;13.572;2023-08-21T09:58:22;4.10;;;2.90;;
60610;SDS011;46439;51.164;13.572;2023-08-21T10:00:51;8.60;;;2.60;;
60610;SDS011;46439;51.164;13.572;2023-08-21T10:03:26;4.40;;;3.20;;
60610;SDS011;46439;51.164;13.572;2023-08-21T10:05:57;4.00;;;3.10;;
60610;SDS011;46439;51.164;13.572;2023-08-21T10:08:26;5.20;;;3.00;;
60610;SDS011;46439;51.164;13.572;2023-08-21T10:10:56;9.50;;;3.30;;
60610;SDS011;46439;51.164;13.572;2023-08-21T10:13:26;6.00;;;3.30;;
60610;SDS011;46439;51.164;13.572;2023-08-21T10:15:55;4.50;;;3.00;;
60610;SDS011;46439;51.164;13.572;2023-08-21T10:18:30;7.20;;;3.20;;
60610;SDS011;46439;51.164;13.572;2023-08-21T10:21:11;5.30;;;2.90;;
60610;SDS011;46439;51.164;13.572;2023-08-21T10:23:41;3.10;;;2.80;;
60610;SDS011;46439;51.164;13.572;2023-08-21T10:26:12;3.10;;;2.60;;
60610;SDS011;46439;51.164;13.572;2023-08-21T10:28:44;3.80;;;3.00;;
60610;SDS011;46439;51.164;13.572;2023-08-21T10:31:27;4.30;;;3.20;;
60610;SDS011;46439;51.164;13.572;2023-08-21T10:34:00;4.70;;;3.20;;
60610;SDS011;46439;51.164;13.572;2023-08-21T10:39:33;5.60;;;3.10;;
60610;SDS011;46439;51.164;13.572;2023-08-21T10:42:04;4.10;;;3.20;;
60610;SDS011;46439;51.164;13.572;2023-08-21T10:44:36;8.70;;;3.90;;
60610;SDS011;46439;51.164;13.572;2023-08-21T10:47:22;6.60;;;3.60;;
60610;SDS011;46439;51.164;13.572;2023-08-21T10:49:59;4.10;;;3.20;;
60610;SDS011;46439;51.164;13.572;2023-08-21T10:52:30;4.80;;;3.30;;
60610;SDS011;46439;51.164;13.572;2023-08-21T10:55:01;4.50;;;2.90;;
60610;SDS011;46439;51.164;13.572;2023-08-21T10:57:31;4.70;;;3.00;;
60610;SDS011;46439;51.164;13.572;2023-08-21T11:00:02;3.90;;;3.30;;
60610;SDS011;46439;51.164;13.572;2023-08-21T11:02:32;5.00;;;3.30;;
60610;SDS011;46439;51.164;13.572;2023-08-21T11:05:01;6.00;;;3.20;;
60610;SDS011;46439;51.164;13.572;2023-08-21T11:07:32;7.50;;;3.10;;
60610;SDS011;46439;51.164;13.572;2023-08-21T11:10:09;4.40;;;3.00;;
60610;SDS011;46439;51.164;13.572;2023-08-21T11:12:40;3.60;;;3.10;;
60610;SDS011;46439;51.164;13.572;2023-08-21T11:15:17;4.00;;;2.70;;
60610;SDS011;46439;51.164;13.572;2023-08-21T11:17:54;6.00;;;3.20;;
60610;SDS011;46439;51.164;13.572;2023-08-21T11:20:26;4.80;;;2.80;;
60610;SDS011;46439;51.164;13.572;2023-08-21T11:22:57;3.30;;;3.00;;
60610;SDS011;46439;51.164;13.572;2023-08-21T11:25:28;4.10;;;2.90;;
60610;SDS011;46439;51.164;13.572;2023-08-21T11:27:58;6.70;;;3.00;;
60610;SDS011;46439;51.164;13.572;2023-08-21T11:33:06;5.40;;;2.50;;
60610;SDS011;46439;51.164;13.572;2023-08-21T11:35:36;6.50;;;2.70;;
60610;SDS011;46439;51.164;13.572;2023-08-21T11:38:05;3.80;;;2.80;;
60610;SDS011;46439;51.164;13.572;2023-08-21T11:40:40;3.80;;;2.90;;
60610;SDS011;46439;51.164;13.572;2023-08-21T11:43:08;4.10;;;3.10;;
60610;SDS011;46439;51.164;13.572;2023-08-21T11:45:39;3.60;;;3.10;;
60610;SDS011;46439;51.164;13.572;2023-08-21T11:48:08;3.10;;;2.70;;
60610;SDS011;46439;51.164;13.572;2023-08-21T11:50:37;4.40;;;2.80;;
60610;SDS011;46439;51.164;13.572;2023-08-21T11:53:05;3.30;;;2.80;;
60610;SDS011;46439;51.164;13.572;2023-08-21T11:55:35;5.10;;;3.20;;
60610;SDS011;46439;51.164;13.572;2023-08-21T11:58:06;3.80;;;2.70;;
60610;SDS011;46439;51.164;13.572;2023-08-21T12:00:34;3.40;;;2.90;;
60610;SDS011;46439;51.164;13.572;2023-08-21T12:03:06;3.30;;;2.90;;
60610;SDS011;46439;51.164;13.572;2023-08-21T12:05:36;5.90;;;3.30;;
60610;SDS011;46439;51.164;13.572;2023-08-21T12:08:10;4.00;;;2.90;;
60610;SDS011;46439;51.164;13.572;2023-08-21T12:10:39;4.50;;;2.90;;
60610;SDS011;46439;51.164;13.572;2023-08-21T12:13:07;4.50;;;2.80;;
60610;SDS011;46439;51.164;13.572;2023-08-21T12:15:36;4.90;;;2.90;;
60610;SDS011;46439;51.164;13.572;2023-08-21T12:18:05;4.20;;;2.90;;
60610;SDS011;46439;51.164;13.572;2023-08-21T12:20:33;4.10;;;3.20;;
60610;SDS011;46439;51.164;13.572;2023-08-21T12:23:02;4.70;;;3.20;;
60610;SDS011;46439;51.164;13.572;2023-08-21T12:25:31;4.60;;;3.00;;
60610;SDS011;46439;51.164;13.572;2023-08-21T12:27:59;4.40;;;3.00;;
60610;SDS011;46439;51.164;13.572;2023-08-21T12:30:28;3.10;;;2.60;;
60610;SDS011;46439;51.164;13.572;2023-08-21T12:32:56;3.80;;;2.60;;
60610;SDS011;46439;51.164;13.572;2023-08-21T12:35:25;5.80;;;3.10;;
60610;SDS011;46439;51.164;13.572;2023-08-21T12:37:56;4.40;;;2.80;;
60610;SDS011;46439;51.164;13.572;2023-08-21T12:40:25;4.00;;;2.80;;
60610;SDS011;46439;51.164;13.572;2023-08-21T12:42:53;3.60;;;2.90;;
60610;SDS011;46439;51.164;13.572;2023-08-21T12:45:22;3.20;;;2.90;;
60610;SDS011;46439;51.164;13.572;2023-08-21T12:47:50;4.80;;;2.80;;
60610;SDS011;46439;51.164;13.572;2023-08-21T12:50:19;5.00;;;2.90;;
60610;SDS011;46439;51.164;13.572;2023-08-21T12:52:47;3.70;;;2.70;;
60610;SDS011;46439;51.164;13.572;2023-08-21T12:55:16;4.90;;;3.00;;
60610;SDS011;46439;51.164;13.572;2023-08-21T12:57:45;5.70;;;2.80;;
60610;SDS011;46439;51.164;13.572;2023-08-21T13:00:14;4.80;;;2.90;;
60610;SDS011;46439;51.164;13.572;2023-08-21T13:02:44;4.80;;;2.90;;
60610;SDS011;46439;51.164;13.572;2023-08-21T13:05:12;5.90;;;3.10;;
60610;SDS011;46439;51.164;13.572;2023-08-21T13:07:41;4.50;;;3.10;;
60610;SDS011;46439;51.164;13.572;2023-08-21T13:10:10;4.70;;;2.90;;
60610;SDS011;46439;51.164;13.572;2023-08-21T13:12:39;5.20;;;2.80;;
60610;SDS011;46439;51.164;13.572;2023-08-21T13:15:08;6.30;;;3.00;;
60610;SDS011;46439;51.164;13.572;2023-08-21T13:17:37;5.30;;;3.00;;
60610;SDS011;46439;51.164;13.572;2023-08-21T13:20:07;4.60;;;2.70;;
60610;SDS011;46439;51.164;13.572;2023-08-21T13:22:47;5.90;;;2.90;;
60610;SDS011;46439;51.164;13.572;2023-08-21T13:25:18;3.40;;;2.60;;
60610;SDS011;46439;51.164;13.572;2023-08-21T13:27:47;5.00;;;3.10;;
60610;SDS011;46439;51.164;13.572;2023-08-21T13:30:17;5.00;;;2.80;;
60610;SDS011;46439;51.164;13.572;2023-08-21T13:32:46;4.00;;;2.70;;
60610;SDS011;46439;51.164;13.572;2023-08-21T13:35:15;5.40;;;3.00;;
60610;SDS011;46439;51.164;13.572;2023-08-21T13:37:44;5.10;;;2.70;;
60610;SDS011;46439;51.164;13.572;2023-08-21T13:40:12;5.40;;;3.00;;
60610;SDS011;46439;51.164;13.572;2023-08-21T13:42:47;4.80;;;3.10;;
60610;SDS011;46439;51.164;13.572;2023-08-21T13:45:16;3.80;;;2.70;;
60610;SDS011;46439;51.164;13.572;2023-08-21T13:47:46;6.00;;;3.20;;
60610;SDS011;46439;51.164;13.572;2023-08-21T13:50:15;6.30;;;3.20;;
60610;SDS011;46439;51.164;13.572;2023-08-21T13:52:45;4.80;;;3.40;;
60610;SDS011;46439;51.164;13.572;2023-08-21T13:55:15;4.10;;;2.60;;
60610;SDS011;46439;51.164;13.572;2023-08-21T13:57:43;3.00;;;2.70;;
60610;SDS011;46439;51.164;13.572;2023-08-21T14:00:13;4.60;;;3.00;;
60610;SDS011;46439;51.164;13.572;2023-08-21T14:02:44;3.40;;;2.80;;
60610;SDS011;46439;51.164;13.572;2023-08-21T14:05:12;4.40;;;2.80;;
60610;SDS011;46439;51.164;13.572;2023-08-21T14:07:41;4.20;;;2.80;;
60610;SDS011;46439;51.164;13.572;2023-08-21T14:10:10;4.60;;;3.20;;
60610;SDS011;46439;51.164;13.572;2023-08-21T14:12:40;5.20;;;3.20;;
60610;SDS011;46439;51.164;13.572;2023-08-21T14:15:09;4.10;;;2.90;;
60610;SDS011;46439;51.164;13.572;2023-08-21T14:17:38;6.20;;;2.90;;
60610;SDS011;46439;51.164;13.572;2023-08-21T14:20:07;4.60;;;2.80;;
60610;SDS011;46439;51.164;13.572;2023-08-21T14:22:37;4.80;;;3.00;;
60610;SDS011;46439;51.164;13.572;2023-08-21T14:25:06;4.00;;;2.90;;
60610;SDS011;46439;51.164;13.572;2023-08-21T14:27:35;4.70;;;2.80;;
60610;SDS011;46439;51.164;13.572;2023-08-21T14:30:05;6.30;;;2.80;;
60610;SDS011;46439;51.164;13.572;2023-08-21T14:32:34;5.00;;;2.60;;
60610;SDS011;46439;51.164;13.572;2023-08-21T14:35:04;4.10;;;2.70;;
60610;SDS011;46439;51.164;13.572;2023-08-21T14:37:34;5.20;;;2.90;;
60610;SDS011;46439;51.164;13.572;2023-08-21T14:40:03;5.30;;;3.20;;
60610;SDS011;46439;51.164;13.572;2023-08-21T14:42:36;4.50;;;3.10;;
60610;SDS011;46439;51.164;13.572;2023-08-21T14:45:06;5.50;;;2.90;;
60610;SDS011;46439;51.164;13.572;2023-08-21T14:47:35;5.30;;;3.10;;
60610;SDS011;46439;51.164;13.572;2023-08-21T14:50:05;4.20;;;3.10;;
60610;SDS011;46439;51.164;13.572;2023-08-21T14:52:35;4.80;;;3.30;;